createdAt,value
2018-09-18T00:00:44.061Z,6.73
2018-09-18T00:03:12.388Z,6.97
2018-09-18T00:05:40.621Z,7.07
2018-09-18T00:08:08.892Z,6.43
2018-09-18T00:10:37.091Z,6.03
2018-09-18T00:13:05.304Z,6.30
2018-09-18T00:15:33.540Z,6.47
2018-09-18T00:18:01.740Z,6.20
2018-09-18T00:20:29.941Z,6.40
2018-09-18T00:22:58.241Z,6.43
2018-09-18T00:25:26.463Z,6.47
2018-09-18T00:27:54.690Z,6.47
2018-09-18T00:30:22.904Z,6.60
2018-09-18T00:32:51.147Z,7.00
2018-09-18T00:35:19.425Z,6.30
2018-09-18T00:37:47.636Z,7.13
2018-09-18T00:40:15.877Z,6.80
2018-09-18T00:42:44.096Z,7.37
2018-09-18T00:45:12.311Z,8.07
2018-09-18T00:47:40.534Z,8.10
2018-09-18T00:50:08.749Z,7.67
2018-09-18T00:52:36.968Z,8.03
2018-09-18T00:55:05.179Z,6.93
2018-09-18T00:57:33.407Z,8.00
2018-09-18T01:00:01.628Z,7.57
2018-09-18T01:02:29.867Z,7.07
2018-09-18T01:04:58.079Z,7.87
2018-09-18T01:07:26.337Z,7.60
2018-09-18T01:09:54.704Z,7.30
2018-09-18T01:12:22.987Z,7.53
2018-09-18T01:14:51.238Z,7.20
2018-09-18T01:17:19.436Z,7.00
2018-09-18T01:19:47.793Z,7.40
2018-09-18T01:22:15.989Z,7.00
2018-09-18T01:24:44.191Z,6.73
2018-09-18T01:27:12.457Z,6.23
2018-09-18T01:29:41.564Z,6.40
2018-09-18T01:32:10.008Z,6.23
2018-09-18T01:34:38.208Z,6.50
2018-09-18T01:37:06.432Z,6.27
2018-09-18T01:39:34.692Z,6.03
2018-09-18T01:42:02.916Z,6.20
2018-09-18T01:44:31.107Z,6.33
2018-09-18T01:46:59.340Z,6.33
2018-09-18T01:49:27.564Z,6.13
2018-09-18T01:51:55.796Z,6.43
2018-09-18T01:54:24.058Z,6.87
2018-09-18T01:56:52.292Z,5.90
2018-09-18T01:59:20.888Z,6.47
2018-09-18T02:01:49.139Z,6.23
2018-09-18T02:04:17.340Z,6.77
2018-09-18T02:06:46.077Z,6.53
2018-09-18T02:09:14.293Z,7.23
2018-09-18T02:11:42.524Z,6.47
2018-09-18T02:14:10.752Z,6.97
2018-09-18T02:16:38.975Z,6.37
2018-09-18T02:19:07.176Z,6.23
2018-09-18T02:21:35.569Z,7.20
2018-09-18T02:24:03.900Z,6.40
2018-09-18T02:26:32.155Z,6.73
2018-09-18T02:29:00.432Z,6.33
2018-09-18T02:31:28.691Z,6.23
2018-09-18T02:33:56.909Z,6.37
2018-09-18T02:36:25.102Z,6.53
2018-09-18T02:38:53.318Z,6.27
2018-09-18T02:41:22.136Z,6.27
2018-09-18T02:43:50.324Z,6.27
2018-09-18T02:46:18.591Z,5.87
2018-09-18T02:48:46.839Z,6.00
2018-09-18T02:51:15.028Z,6.37
2018-09-18T02:53:43.271Z,6.53
2018-09-18T02:56:11.539Z,5.77
2018-09-18T02:58:39.760Z,6.80
2018-09-18T03:01:07.964Z,6.10
2018-09-18T03:03:36.180Z,6.73
2018-09-18T03:06:04.396Z,6.00
2018-09-18T03:08:32.592Z,6.97
2018-09-18T03:11:00.812Z,6.00
2018-09-18T03:13:29.053Z,6.33
2018-09-18T03:15:57.284Z,5.80
2018-09-18T03:18:25.620Z,6.20
2018-09-18T03:20:53.908Z,6.80
2018-09-18T03:23:22.113Z,5.97
2018-09-18T03:25:50.355Z,6.73
2018-09-18T03:28:18.625Z,6.80
2018-09-18T03:30:46.813Z,6.53
2018-09-18T03:33:15.028Z,5.93
2018-09-18T03:35:43.504Z,6.43
2018-09-18T03:38:11.729Z,5.93
2018-09-18T03:40:39.959Z,6.20
2018-09-18T03:43:08.180Z,5.80
2018-09-18T03:45:36.399Z,5.83
2018-09-18T03:48:04.644Z,6.30
2018-09-18T03:50:32.855Z,6.47
2018-09-18T03:53:01.112Z,6.07
2018-09-18T03:55:29.358Z,6.20
2018-09-18T03:57:57.596Z,6.00
2018-09-18T04:00:25.884Z,6.20
2018-09-18T04:02:54.196Z,5.93
2018-09-18T04:05:22.352Z,6.37
2018-09-18T04:07:50.556Z,5.93
2018-09-18T04:10:18.764Z,5.73
2018-09-18T04:12:46.979Z,6.07
2018-09-18T04:15:15.204Z,5.90
2018-09-18T04:17:43.412Z,5.80
2018-09-18T04:20:11.657Z,5.83
2018-09-18T04:22:39.884Z,6.10
2018-09-18T04:25:08.249Z,6.00
2018-09-18T04:27:36.736Z,6.13
2018-09-18T04:30:04.924Z,6.37
2018-09-18T04:32:33.352Z,6.63
2018-09-18T04:35:01.560Z,6.03
2018-09-18T04:37:29.816Z,5.70
2018-09-18T04:39:58.017Z,5.73
2018-09-18T04:42:26.239Z,6.27
2018-09-18T04:44:54.481Z,6.50
2018-09-18T04:47:22.708Z,6.27
2018-09-18T04:49:50.896Z,6.63
2018-09-18T04:52:19.119Z,6.97
2018-09-18T04:54:47.528Z,7.03
2018-09-18T04:57:15.665Z,6.83
2018-09-18T04:59:43.908Z,6.57
2018-09-18T05:02:12.533Z,5.90
2018-09-18T05:04:40.655Z,6.00
2018-09-18T05:07:08.885Z,5.93
2018-09-18T05:09:37.113Z,5.23
2018-09-18T05:12:05.392Z,6.20
2018-09-18T05:14:33.655Z,5.83
2018-09-18T05:17:01.879Z,5.73
2018-09-18T05:19:30.198Z,5.83
2018-09-18T05:21:58.421Z,6.17
2018-09-18T05:24:26.656Z,5.80
2018-09-18T05:26:54.851Z,5.93
2018-09-18T05:29:23.096Z,6.10
2018-09-18T05:31:51.295Z,5.70
2018-09-18T05:34:19.528Z,5.63
2018-09-18T05:36:47.727Z,6.23
2018-09-18T05:39:16.017Z,6.80
2018-09-18T05:41:44.225Z,6.33
2018-09-18T05:44:12.484Z,6.40
2018-09-18T05:46:40.733Z,6.60
2018-09-18T05:49:08.955Z,6.40
2018-09-18T05:51:37.159Z,6.10
2018-09-18T05:54:05.404Z,6.50
2018-09-18T05:56:34.481Z,6.67
2018-09-18T05:59:02.689Z,6.67
2018-09-18T06:01:30.991Z,6.77
2018-09-18T06:03:59.270Z,6.20
2018-09-18T06:06:27.528Z,6.73
2018-09-18T06:08:55.759Z,6.93
2018-09-18T06:11:23.974Z,7.93
2018-09-18T06:13:52.208Z,7.53
2018-09-18T06:16:20.448Z,7.50
2018-09-18T06:18:48.718Z,6.77
2018-09-18T06:21:16.896Z,7.37
2018-09-18T06:23:45.148Z,6.90
2018-09-18T06:26:13.460Z,6.87
2018-09-18T06:28:41.651Z,7.27
2018-09-18T06:31:09.921Z,7.43
2018-09-18T06:33:38.133Z,7.50
2018-09-18T06:36:06.426Z,7.20
2018-09-18T06:38:34.623Z,6.43
2018-09-18T06:41:02.878Z,7.37
2018-09-18T06:43:31.900Z,6.63
2018-09-18T06:46:00.132Z,7.40
2018-09-18T06:48:28.465Z,7.97
2018-09-18T06:50:56.655Z,6.70
2018-09-18T06:53:24.876Z,7.17
2018-09-18T06:55:53.067Z,6.73
2018-09-18T06:58:21.279Z,7.07
2018-09-18T07:00:49.520Z,7.80
2018-09-18T07:03:17.739Z,6.77
2018-09-18T07:05:46.381Z,6.27
2018-09-18T07:08:14.580Z,6.73
2018-09-18T07:10:42.808Z,6.60
2018-09-18T07:13:11.041Z,6.60
2018-09-18T07:15:39.376Z,6.57
2018-09-18T07:18:07.629Z,6.30
2018-09-18T07:20:35.804Z,6.30
2018-09-18T07:23:04.025Z,6.43
2018-09-18T07:25:32.381Z,6.77
2018-09-18T07:28:00.592Z,6.33
2018-09-18T07:30:28.800Z,7.33
2018-09-18T07:32:57.081Z,7.27
2018-09-18T07:35:25.271Z,7.33
2018-09-18T07:37:53.496Z,6.57
2018-09-18T07:40:21.688Z,7.50
2018-09-18T07:42:49.988Z,7.97
2018-09-18T07:45:18.255Z,7.87
2018-09-18T07:47:46.472Z,6.93
2018-09-18T07:50:14.751Z,6.93
2018-09-18T07:52:43.004Z,7.03
2018-09-18T07:55:11.217Z,7.77
2018-09-18T07:57:39.447Z,7.67
2018-09-18T08:00:07.940Z,7.23
2018-09-18T08:02:36.180Z,7.47
2018-09-18T08:05:04.468Z,6.53
2018-09-18T08:07:32.678Z,6.17
2018-09-18T08:10:00.903Z,6.50
2018-09-18T08:12:29.100Z,6.27
2018-09-18T08:14:58.248Z,7.03
2018-09-18T08:17:26.481Z,6.63
2018-09-18T08:19:54.776Z,6.23
2018-09-18T08:22:23.048Z,6.70
2018-09-18T08:24:51.256Z,5.90
2018-09-18T08:27:19.528Z,5.87
2018-09-18T08:29:47.763Z,5.50
2018-09-18T08:32:15.963Z,5.50
2018-09-18T08:34:44.192Z,5.27
2018-09-18T08:37:12.424Z,5.17
2018-09-18T08:39:40.913Z,6.00
2018-09-18T08:42:09.064Z,5.87
2018-09-18T08:44:37.264Z,5.30
2018-09-18T08:47:05.537Z,5.40
2018-09-18T08:49:33.727Z,5.30
2018-09-18T08:52:01.981Z,5.43
2018-09-18T08:54:30.384Z,5.50
2018-09-18T08:56:58.567Z,5.13
2018-09-18T08:59:33.555Z,5.07
2018-09-18T09:02:01.807Z,4.90
2018-09-18T09:04:30.051Z,4.83
2018-09-18T09:06:58.290Z,4.90
2018-09-18T09:09:26.550Z,4.90
2018-09-18T09:11:54.716Z,5.07
2018-09-18T09:14:22.997Z,4.57
2018-09-18T09:16:51.119Z,5.20
2018-09-18T09:19:19.349Z,4.93
2018-09-18T09:21:47.688Z,5.23
2018-09-18T09:24:15.844Z,5.53
2018-09-18T09:26:45.236Z,4.33
2018-09-18T09:29:13.478Z,4.87
2018-09-18T09:31:42.260Z,5.17
2018-09-18T09:34:10.479Z,4.90
2018-09-18T09:36:38.690Z,4.63
2018-09-18T09:39:09.501Z,4.83
2018-09-18T09:41:37.784Z,4.40
2018-09-18T09:44:06.000Z,4.87
2018-09-18T09:46:34.249Z,4.77
2018-09-18T09:49:02.437Z,4.20
2018-09-18T09:51:30.789Z,4.87
2018-09-18T09:53:58.936Z,4.23
2018-09-18T09:56:27.433Z,3.97
2018-09-18T09:58:55.624Z,3.70
2018-09-18T10:01:29.349Z,3.70
2018-09-18T10:03:57.547Z,4.00
2018-09-18T10:06:26.204Z,3.83
2018-09-18T10:08:54.467Z,4.33
2018-09-18T10:11:22.732Z,4.20
2018-09-18T10:13:50.964Z,3.97
2018-09-18T10:16:19.255Z,3.93
2018-09-18T10:18:47.496Z,3.90
2018-09-18T10:21:15.720Z,4.17
2018-09-18T10:23:43.960Z,4.00
2018-09-18T10:26:12.224Z,4.13
2018-09-18T10:28:40.394Z,4.23
2018-09-18T10:31:08.596Z,3.70
2018-09-18T10:33:36.784Z,4.00
2018-09-18T10:36:05.007Z,3.83
2018-09-18T10:38:33.256Z,4.03
2018-09-18T10:41:01.575Z,4.37
2018-09-18T10:43:29.685Z,3.80
2018-09-18T10:45:57.954Z,3.97
2018-09-18T10:48:26.171Z,3.80
2018-09-18T10:50:54.358Z,3.17
2018-09-18T10:53:22.571Z,3.43
2018-09-18T10:55:50.793Z,3.93
2018-09-18T10:58:18.996Z,4.10
2018-09-18T11:00:47.227Z,3.33
2018-09-18T11:03:15.447Z,3.10
2018-09-18T11:05:43.733Z,3.07
2018-09-18T11:08:12.040Z,3.90
2018-09-18T11:10:40.156Z,3.30
2018-09-18T11:13:08.446Z,3.47
2018-09-18T11:15:36.716Z,3.43
2018-09-18T11:18:04.975Z,3.50
2018-09-18T11:20:33.143Z,3.90
2018-09-18T11:23:01.750Z,3.50
2018-09-18T11:25:30.001Z,3.50
2018-09-18T11:27:58.214Z,3.13
2018-09-18T11:30:26.431Z,3.23
2018-09-18T11:32:54.771Z,3.00
2018-09-18T11:35:22.839Z,3.20
2018-09-18T11:37:51.756Z,3.37
2018-09-18T11:40:19.956Z,3.62
2018-09-18T11:42:48.157Z,3.30
2018-09-18T11:45:16.388Z,3.40
2018-09-18T11:47:44.624Z,3.50
2018-09-18T11:50:12.848Z,3.35
2018-09-18T11:52:41.105Z,3.30
2018-09-18T11:55:09.285Z,3.35
2018-09-18T11:57:37.524Z,3.72
2018-09-18T12:00:05.724Z,3.37
2018-09-18T12:02:34.945Z,3.50
2018-09-18T12:05:03.198Z,3.42
2018-09-18T12:07:31.369Z,3.72
2018-09-18T12:09:59.600Z,3.45
2018-09-18T12:12:27.801Z,3.42
2018-09-18T12:14:56.016Z,3.52
2018-09-18T12:17:24.212Z,3.15
2018-09-18T12:19:52.788Z,3.50
2018-09-18T12:22:21.082Z,3.55
2018-09-18T12:24:49.240Z,3.92
2018-09-18T12:27:17.866Z,3.60
2018-09-18T12:29:46.069Z,3.87
2018-09-18T12:32:14.297Z,4.22
2018-09-18T12:34:42.521Z,3.70
2018-09-18T12:37:10.861Z,3.83
2018-09-18T12:39:39.056Z,3.75
2018-09-18T12:42:07.492Z,3.90
2018-09-18T12:44:35.596Z,4.05
2018-09-18T12:47:03.828Z,3.60
2018-09-18T12:49:32.242Z,3.98
2018-09-18T12:52:00.756Z,4.05
2018-09-18T12:54:29.088Z,4.15
2018-09-18T12:56:57.458Z,4.03
2018-09-18T12:59:25.680Z,4.53
2018-09-18T13:01:53.876Z,4.30
2018-09-18T13:04:22.111Z,3.90
2018-09-18T13:06:50.431Z,4.47
2018-09-18T13:09:18.619Z,4.42
2018-09-18T13:11:46.828Z,3.62
2018-09-18T13:14:15.137Z,4.25
2018-09-18T13:16:43.360Z,3.77
2018-09-18T13:19:11.688Z,4.12
2018-09-18T13:21:39.912Z,3.62
2018-09-18T13:24:08.174Z,4.40
2018-09-18T13:26:36.503Z,4.30
2018-09-18T13:29:04.685Z,3.75
2018-09-18T13:31:32.880Z,3.85
2018-09-18T13:34:01.104Z,4.03
2018-09-18T13:36:29.389Z,4.35
2018-09-18T13:38:57.587Z,3.90
2018-09-18T13:41:25.986Z,3.77
2018-09-18T13:43:54.027Z,3.83
2018-09-18T13:46:22.309Z,3.98
2018-09-18T13:48:50.459Z,4.10
2018-09-18T13:51:19.129Z,4.30
2018-09-18T13:53:47.357Z,4.03
2018-09-18T13:56:15.669Z,3.83
2018-09-18T13:58:43.897Z,4.05
2018-09-18T14:01:12.244Z,3.65
2018-09-18T14:03:40.445Z,4.05
2018-09-18T14:06:08.772Z,3.60
2018-09-18T14:08:37.070Z,4.17
2018-09-18T14:11:05.260Z,4.20
2018-09-18T14:13:34.104Z,4.35
2018-09-18T14:16:02.319Z,4.28
2018-09-18T14:18:30.524Z,3.95
2018-09-18T14:20:58.761Z,3.60
2018-09-18T14:23:26.976Z,3.45
2018-09-18T14:25:55.176Z,3.50
2018-09-18T14:28:23.448Z,3.40
2018-09-18T14:30:51.692Z,4.53
2018-09-18T14:33:19.921Z,3.67
2018-09-18T14:35:48.570Z,3.33
2018-09-18T14:38:16.810Z,3.42
2018-09-18T14:40:45.068Z,3.50
2018-09-18T14:43:13.308Z,3.15
2018-09-18T14:45:41.545Z,4.08
2018-09-18T14:48:09.756Z,3.75
2018-09-18T14:50:37.990Z,3.60
2018-09-18T14:53:06.266Z,3.55
2018-09-18T14:55:34.514Z,3.52
2018-09-18T14:58:02.849Z,3.80
2018-09-18T15:00:31.056Z,3.50
2018-09-18T15:02:59.292Z,3.50
2018-09-18T15:05:27.541Z,3.33
2018-09-18T15:07:55.787Z,3.47
2018-09-18T15:10:30.676Z,3.77
2018-09-18T15:12:58.940Z,3.50
2018-09-18T15:15:27.251Z,3.20
2018-09-18T15:17:55.532Z,3.60
2018-09-18T15:20:23.753Z,3.33
2018-09-18T15:22:55.439Z,3.97
2018-09-18T15:25:23.700Z,3.40
2018-09-18T15:27:52.117Z,3.33
2018-09-18T15:30:20.669Z,3.60
2018-09-18T15:32:48.948Z,3.60
2018-09-18T15:35:17.198Z,3.60
2018-09-18T15:37:45.541Z,3.70
2018-09-18T15:40:13.812Z,4.17
2018-09-18T15:42:42.051Z,3.63
2018-09-18T15:45:10.369Z,3.63
2018-09-18T15:47:38.583Z,4.00
2018-09-18T15:50:06.838Z,4.17
2018-09-18T15:52:35.078Z,4.30
2018-09-18T15:55:03.383Z,4.23
2018-09-18T15:57:31.559Z,4.20
2018-09-18T15:59:59.898Z,5.20
2018-09-18T16:02:28.159Z,4.80
2018-09-18T16:04:56.440Z,4.33
2018-09-18T16:07:24.664Z,4.90
2018-09-18T16:09:52.945Z,4.63
2018-09-18T16:12:21.076Z,4.40
2018-09-18T16:14:49.407Z,4.10
2018-09-18T16:17:17.528Z,4.80
2018-09-18T16:19:45.775Z,4.73
2018-09-18T16:22:15.002Z,4.50
2018-09-18T16:24:43.329Z,4.10
2018-09-18T16:27:12.128Z,4.03
2018-09-18T16:29:40.683Z,3.87
2018-09-18T16:32:08.892Z,4.87
2018-09-18T16:34:37.176Z,4.67
2018-09-18T16:37:05.368Z,4.07
2018-09-18T16:39:33.589Z,4.90
2018-09-18T16:42:01.834Z,4.30
2018-09-18T16:44:30.083Z,4.70
2018-09-18T16:46:58.549Z,4.67
2018-09-18T16:49:26.752Z,4.33
2018-09-18T16:51:54.960Z,4.00
2018-09-18T16:54:23.250Z,4.30
2018-09-18T16:56:51.441Z,4.47
2018-09-18T16:59:19.717Z,4.03
2018-09-18T17:01:47.997Z,4.03
2018-09-18T17:04:16.198Z,3.80
2018-09-18T17:06:44.609Z,4.20
2018-09-18T17:09:12.882Z,4.13
2018-09-18T17:11:41.116Z,4.10
2018-09-18T17:14:09.385Z,3.67
2018-09-18T17:16:37.668Z,3.73
2018-09-18T17:19:05.964Z,3.47
2018-09-18T17:21:34.215Z,3.40
2018-09-18T17:24:02.408Z,3.50
2018-09-18T17:26:31.495Z,3.90
2018-09-18T17:28:59.885Z,3.73
2018-09-18T17:31:28.193Z,3.40
2018-09-18T17:33:56.586Z,2.83
2018-09-18T17:36:24.872Z,3.27
2018-09-18T17:38:53.151Z,3.23
2018-09-18T17:41:21.608Z,3.43
2018-09-18T17:43:50.848Z,3.10
2018-09-18T17:46:19.058Z,3.37
2018-09-18T17:48:47.300Z,3.50
2018-09-18T17:51:15.527Z,2.83
2018-09-18T17:53:44.023Z,3.40
2018-09-18T17:56:12.260Z,3.50
2018-09-18T17:58:40.480Z,3.20
2018-09-18T18:01:08.707Z,2.80
2018-09-18T18:03:36.996Z,2.70
2018-09-18T18:06:05.285Z,2.57
2018-09-18T18:08:33.812Z,2.50
2018-09-18T18:11:02.092Z,2.77
2018-09-18T18:13:30.247Z,2.97
2018-09-18T18:15:58.460Z,2.70
2018-09-18T18:18:26.685Z,2.70
2018-09-18T18:20:55.039Z,3.30
2018-09-18T18:23:23.183Z,2.30
2018-09-18T18:25:51.391Z,2.57
2018-09-18T18:28:19.642Z,2.90
2018-09-18T18:30:48.560Z,3.00
2018-09-18T18:33:16.860Z,3.27
2018-09-18T18:35:51.560Z,2.60
2018-09-18T18:38:19.785Z,3.03
2018-09-18T18:40:48.564Z,3.17
2018-09-18T18:43:16.725Z,2.80
2018-09-18T18:45:44.973Z,2.60
2018-09-18T18:48:14.451Z,2.73
2018-09-18T18:50:42.636Z,2.90
2018-09-18T18:53:11.285Z,3.00
2018-09-18T18:55:39.720Z,2.60
2018-09-18T18:58:08.032Z,2.30
2018-09-18T19:00:36.681Z,2.30
2018-09-18T19:03:04.843Z,1.90
2018-09-18T19:05:33.078Z,2.00
2018-09-18T19:08:01.291Z,1.73
2018-09-18T19:10:29.554Z,1.73
2018-09-18T19:12:57.763Z,2.07
2018-09-18T19:15:27.534Z,1.90
2018-09-18T19:17:55.769Z,1.80
2018-09-18T19:20:24.043Z,1.70
2018-09-18T19:22:52.267Z,1.63
2018-09-18T19:25:20.539Z,1.90
2018-09-18T19:27:48.848Z,1.83
2018-09-18T19:30:17.226Z,2.03
2018-09-18T19:32:45.606Z,1.80
2018-09-18T19:35:20.132Z,2.03
2018-09-18T19:37:48.423Z,2.23
2018-09-18T19:40:16.679Z,1.87
2018-09-18T19:42:45.036Z,2.50
2018-09-18T19:45:13.262Z,2.33
2018-09-18T19:47:41.514Z,2.37
2018-09-18T19:50:14.887Z,2.20
2018-09-18T19:52:43.822Z,2.00
2018-09-18T19:55:12.323Z,2.00
2018-09-18T19:57:40.606Z,1.83
2018-09-18T20:00:09.531Z,2.17
2018-09-18T20:02:37.804Z,1.90
2018-09-18T20:05:06.034Z,1.87
2018-09-18T20:07:34.374Z,1.90
2018-09-18T20:10:02.971Z,1.50
2018-09-18T20:12:31.210Z,2.00
2018-09-18T20:14:59.504Z,2.03
2018-09-18T20:17:27.817Z,2.40
2018-09-18T20:19:56.289Z,2.10
2018-09-18T20:22:25.163Z,2.03
2018-09-18T20:24:53.366Z,1.90
2018-09-18T20:27:21.988Z,1.90
2018-09-18T20:29:50.238Z,2.20
2018-09-18T20:32:18.492Z,2.13
2018-09-18T20:34:46.695Z,2.30
2018-09-18T20:37:15.196Z,1.93
2018-09-18T20:39:43.512Z,1.93
2018-09-18T20:42:11.767Z,2.13
2018-09-18T20:44:40.058Z,1.60
2018-09-18T20:47:08.324Z,1.80
2018-09-18T20:49:36.572Z,1.80
2018-09-18T20:52:04.789Z,2.30
2018-09-18T20:54:33.038Z,1.90
2018-09-18T20:57:01.282Z,1.70
2018-09-18T20:59:29.534Z,1.93
2018-09-18T21:01:58.012Z,2.17
2018-09-18T21:04:26.223Z,2.10
2018-09-18T21:06:54.443Z,2.30
2018-09-18T21:09:22.706Z,2.37
2018-09-18T21:11:50.927Z,2.20
2018-09-18T21:14:19.404Z,2.07
2018-09-18T21:16:47.711Z,2.20
2018-09-18T21:19:15.988Z,2.20
2018-09-18T21:21:44.214Z,2.40
2018-09-18T21:24:12.516Z,2.97
2018-09-18T21:26:40.756Z,2.80
2018-09-18T21:29:08.971Z,2.27
2018-09-18T21:31:37.195Z,2.53
2018-09-18T21:34:05.470Z,2.80
2018-09-18T21:36:34.297Z,2.93
2018-09-18T21:39:02.576Z,3.53
2018-09-18T21:41:30.814Z,2.97
2018-09-18T21:43:59.129Z,3.20
2018-09-18T21:46:27.332Z,3.03
2018-09-18T21:48:56.564Z,3.30
2018-09-18T21:51:24.825Z,3.67
2018-09-18T21:53:53.037Z,2.97
2018-09-18T21:56:21.251Z,3.37
2018-09-18T21:58:49.477Z,3.57
2018-09-18T22:01:17.776Z,3.67
2018-09-18T22:03:46.000Z,3.30
2018-09-18T22:06:14.288Z,3.27
2018-09-18T22:08:42.579Z,3.13
2018-09-18T22:11:10.872Z,3.30
2018-09-18T22:13:39.064Z,3.40
2018-09-18T22:16:07.287Z,3.50
2018-09-18T22:18:35.510Z,3.60
2018-09-18T22:21:03.728Z,3.27
2018-09-18T22:23:31.965Z,3.40
2018-09-18T22:26:00.206Z,3.67
2018-09-18T22:28:28.436Z,3.70
2018-09-18T22:30:56.723Z,3.87
2018-09-18T22:33:25.064Z,4.20
2018-09-18T22:35:53.294Z,3.97
2018-09-18T22:38:21.516Z,3.83
2018-09-18T22:40:49.722Z,4.47
2018-09-18T22:43:18.014Z,4.47
2018-09-18T22:45:46.172Z,4.37
2018-09-18T22:48:14.455Z,4.57
2018-09-18T22:50:42.697Z,4.67
2018-09-18T22:53:10.961Z,4.53
2018-09-18T22:55:39.170Z,4.13
2018-09-18T22:58:07.389Z,4.57
2018-09-18T23:00:35.687Z,4.30
2018-09-18T23:03:03.912Z,4.57
2018-09-18T23:05:32.119Z,4.30
2018-09-18T23:08:00.358Z,4.37
2018-09-18T23:10:29.509Z,4.30
2018-09-18T23:12:57.736Z,4.80
2018-09-18T23:15:25.937Z,5.10
2018-09-18T23:17:54.143Z,4.97
2018-09-18T23:20:22.353Z,4.67
2018-09-18T23:22:50.554Z,5.27
2018-09-18T23:25:18.809Z,5.00
2018-09-18T23:27:47.772Z,4.50
2018-09-18T23:30:15.980Z,4.70
2018-09-18T23:32:45.073Z,4.63
2018-09-18T23:35:13.303Z,4.63
2018-09-18T23:37:41.545Z,4.90
2018-09-18T23:40:10.356Z,5.47
2018-09-18T23:42:38.626Z,5.13
2018-09-18T23:45:06.843Z,4.80
2018-09-18T23:47:35.070Z,4.50
2018-09-18T23:50:03.341Z,5.53
2018-09-18T23:52:31.574Z,5.00
2018-09-18T23:54:59.836Z,4.50
2018-09-18T23:57:28.075Z,4.87
2018-09-18T23:59:56.307Z,5.07
